Time;durP1;ratioP1;P1;durP2;ratioP2;P2;SDS_P1;SDS_P2;PMS_P1;PMS_P2;Temp;Humidity;BMP_temperature;BMP_pressure;BME280_temperature;BME280_humidity;BME280_pressure;Samples;Min_cycle;Max_cycle;Signal;HPM_P1;HPM_P2
2023/08/06 00:00:38;;;;;;;3.67;0.90;;;;;;;;;;5096333;28;20441;-83
2023/08/06 00:03:04;;;;;;;2.30;1.03;;;;;;;;;;5096198;28;20418;-82
2023/08/06 00:05:30;;;;;;;1.80;0.67;;;;;;;;;;5096228;28;20502;-82
2023/08/06 00:07:56;;;;;;;1.40;0.57;;;;;;;;;;5096234;28;20424;-82
2023/08/06 00:10:22;;;;;;;4.30;1.57;;;;;;;;;;5096189;28;20204;-82
2023/08/06 00:12:48;;;;;;;1.90;1.47;;;;;;;;;;5095721;28;20204;-81
2023/08/06 00:15:14;;;;;;;2.80;0.97;;;;;;;;;;5096029;28;20407;-82
2023/08/06 00:17:40;;;;;;;3.80;1.43;;;;;;;;;;5096047;28;20411;-81
2023/08/06 00:20:07;;;;;;;1.80;0.60;;;;;;;;;;5095205;28;20412;-82
2023/08/06 00:22:33;;;;;;;1.80;0.80;;;;;;;;;;5095946;28;20400;-83
2023/08/06 00:24:59;;;;;;;2.53;0.73;;;;;;;;;;5095851;28;20938;-82
2023/08/06 00:27:25;;;;;;;2.07;0.97;;;;;;;;;;5094557;28;20422;-82
2023/08/06 00:29:51;;;;;;;3.07;1.47;;;;;;;;;;5095599;28;20531;-81
2023/08/06 00:32:17;;;;;;;3.93;1.90;;;;;;;;;;5095551;28;20488;-81
2023/08/06 00:34:43;;;;;;;2.83;1.10;;;;;;;;;;5095385;28;20677;-81
2023/08/06 00:37:09;;;;;;;3.23;1.27;;;;;;;;;;5094446;28;20424;-81
2023/08/06 00:39:35;;;;;;;2.17;1.10;;;;;;;;;;5095610;28;20426;-81
2023/08/06 00:42:01;;;;;;;2.10;1.27;;;;;;;;;;5095614;28;20181;-81
2023/08/06 00:44:27;;;;;;;4.13;2.43;;;;;;;;;;5094993;28;20497;-81
2023/08/06 00:46:54;;;;;;;3.27;1.73;;;;;;;;;;5086951;28;20460;-82
2023/08/06 00:49:20;;;;;;;4.03;2.00;;;;;;;;;;5095021;28;20463;-83
2023/08/06 00:51:46;;;;;;;3.50;2.20;;;;;;;;;;5094469;28;20415;-82
2023/08/06 00:54:12;;;;;;;4.30;2.57;;;;;;;;;;5095046;28;20861;-82
2023/08/06 00:56:38;;;;;;;4.57;2.60;;;;;;;;;;5093816;28;20419;-83
2023/08/06 00:59:07;;;;;;;3.53;2.80;;;;;;;;;;5093151;28;20431;-83
2023/08/06 01:01:33;;;;;;;4.93;2.10;;;;;;;;;;5094306;28;20419;-83
2023/08/06 01:03:59;;;;;;;3.03;2.20;;;;;;;;;;5094732;28;20431;-82
2023/08/06 01:06:48;;;;;;;2.97;1.33;;;;;;;;;;5094560;28;20421;-80
2023/08/06 01:09:22;;;;;;;4.47;2.67;;;;;;;;;;5094895;28;20414;-82
2023/08/06 01:12:00;;;;;;;2.73;1.77;;;;;;;;;;5093630;28;20894;-81
2023/08/06 01:14:31;;;;;;;3.03;1.97;;;;;;;;;;5094048;28;20464;-81
2023/08/06 01:16:58;;;;;;;3.93;2.70;;;;;;;;;;5094557;28;20411;-82
2023/08/06 01:19:27;;;;;;;3.20;1.90;;;;;;;;;;5094664;28;20414;-82
2023/08/06 01:21:56;;;;;;;2.20;1.60;;;;;;;;;;5094426;28;20419;-83
2023/08/06 01:24:28;;;;;;;3.50;2.30;;;;;;;;;;5094398;28;20400;-82
2023/08/06 01:26:58;;;;;;;4.87;2.50;;;;;;;;;;5094698;28;20925;-82
2023/08/06 01:29:28;;;;;;;3.90;2.70;;;;;;;;;;5092051;28;20751;-81
2023/08/06 01:31:55;;;;;;;5.40;2.70;;;;;;;;;;5093081;28;20431;-83
2023/08/06 01:34:22;;;;;;;4.13;2.40;;;;;;;;;;5094188;28;20515;-81
2023/08/06 01:36:48;;;;;;;4.47;2.77;;;;;;;;;;5093794;28;20905;-82
2023/08/06 01:39:14;;;;;;;4.00;3.60;;;;;;;;;;5094340;28;20412;-82
2023/08/06 01:41:40;;;;;;;5.47;3.07;;;;;;;;;;5094160;28;20407;-82
2023/08/06 01:44:06;;;;;;;4.50;3.20;;;;;;;;;;5093377;28;20467;-82
2023/08/06 01:46:32;;;;;;;3.50;2.60;;;;;;;;;;5094055;28;20794;-81
2023/08/06 01:48:58;;;;;;;4.73;2.67;;;;;;;;;;5094103;28;20913;-82
2023/08/06 01:51:24;;;;;;;3.90;3.50;;;;;;;;;;5090133;28;20172;-83
2023/08/06 01:53:49;;;;;;;4.33;3.40;;;;;;;;;;5086585;28;20477;-82
2023/08/06 01:56:15;;;;;;;4.20;3.13;;;;;;;;;;5082979;28;20823;-82
2023/08/06 01:58:41;;;;;;;3.63;2.60;;;;;;;;;;5081180;28;20182;-82
2023/08/06 02:01:07;;;;;;;4.00;3.00;;;;;;;;;;5082435;28;20167;-82
2023/08/06 02:03:33;;;;;;;4.13;3.37;;;;;;;;;;5083354;28;20235;-82
2023/08/06 02:05:59;;;;;;;5.77;3.80;;;;;;;;;;5082599;28;20427;-81
2023/08/06 02:08:25;;;;;;;4.70;2.80;;;;;;;;;;5082172;28;20172;-82
2023/08/06 02:10:51;;;;;;;5.30;3.50;;;;;;;;;;5083712;28;20176;-82
2023/08/06 02:13:16;;;;;;;8.67;4.73;;;;;;;;;;5083079;28;20205;-82
2023/08/06 02:15:43;;;;;;;4.80;3.87;;;;;;;;;;5081884;28;20402;-82
2023/08/06 02:18:09;;;;;;;5.50;3.50;;;;;;;;;;5083785;28;20181;-82
2023/08/06 02:20:35;;;;;;;5.83;3.50;;;;;;;;;;5083249;28;20402;-82
2023/08/06 02:23:01;;;;;;;7.10;3.90;;;;;;;;;;5081911;28;20442;-82
2023/08/06 02:25:27;;;;;;;7.23;4.50;;;;;;;;;;5084776;28;20167;-82
2023/08/06 02:27:53;;;;;;;4.47;3.40;;;;;;;;;;5082599;28;20179;-82
2023/08/06 02:30:19;;;;;;;5.70;4.20;;;;;;;;;;5083568;28;20761;-82
2023/08/06 02:32:45;;;;;;;5.17;4.20;;;;;;;;;;5084005;28;20189;-82
2023/08/06 02:35:11;;;;;;;5.67;3.97;;;;;;;;;;5081278;28;20909;-81
2023/08/06 02:37:37;;;;;;;4.73;4.07;;;;;;;;;;5082284;28;20259;-82
2023/08/06 02:40:03;;;;;;;5.67;4.30;;;;;;;;;;5082398;28;20418;-81
2023/08/06 02:42:29;;;;;;;5.70;4.33;;;;;;;;;;5072315;28;20816;-81
2023/08/06 02:44:55;;;;;;;5.83;3.57;;;;;;;;;;5073049;28;20423;-81
2023/08/06 02:47:21;;;;;;;5.30;4.10;;;;;;;;;;5073073;28;20418;-81
2023/08/06 02:49:47;;;;;;;4.97;3.50;;;;;;;;;;5073063;28;20277;-81
2023/08/06 02:52:13;;;;;;;5.80;4.17;;;;;;;;;;5072977;28;20526;-81
2023/08/06 02:54:39;;;;;;;5.50;3.13;;;;;;;;;;5072936;28;20995;-81
2023/08/06 02:57:05;;;;;;;7.07;4.53;;;;;;;;;;5072478;28;20776;-81
2023/08/06 02:59:31;;;;;;;6.30;4.10;;;;;;;;;;5079702;28;20186;-81
2023/08/06 03:01:57;;;;;;;4.50;3.77;;;;;;;;;;5078963;28;20417;-81
2023/08/06 03:04:23;;;;;;;5.00;3.40;;;;;;;;;;5080187;28;20916;-81
2023/08/06 03:06:52;;;;;;;4.23;3.40;;;;;;;;;;5092993;28;20236;-81
2023/08/06 03:09:18;;;;;;;4.30;3.23;;;;;;;;;;5093012;28;20897;-81
2023/08/06 03:11:44;;;;;;;5.20;3.30;;;;;;;;;;5092953;28;20892;-82
2023/08/06 03:14:10;;;;;;;4.93;3.60;;;;;;;;;;5092507;28;20477;-81
2023/08/06 03:16:36;;;;;;;5.93;3.90;;;;;;;;;;5092845;28;20173;-82
2023/08/06 03:19:02;;;;;;;3.20;2.30;;;;;;;;;;5092953;28;20420;-82
2023/08/06 03:21:27;;;;;;;5.23;3.30;;;;;;;;;;5092951;28;20174;-81
2023/08/06 03:23:53;;;;;;;5.00;3.10;;;;;;;;;;5092946;28;20408;-82
2023/08/06 03:26:19;;;;;;;4.70;3.13;;;;;;;;;;5092896;28;20703;-81
2023/08/06 03:28:45;;;;;;;4.50;2.70;;;;;;;;;;5092453;28;20231;-82
2023/08/06 03:31:11;;;;;;;4.13;3.27;;;;;;;;;;5092908;28;20418;-82
2023/08/06 03:33:37;;;;;;;4.20;3.00;;;;;;;;;;5092796;28;20549;-82
2023/08/06 03:36:03;;;;;;;4.97;3.00;;;;;;;;;;5092788;28;20412;-81
2023/08/06 03:38:29;;;;;;;4.17;2.33;;;;;;;;;;5092740;28;20463;-82
2023/08/06 03:40:55;;;;;;;6.20;3.23;;;;;;;;;;5092721;28;20440;-82
2023/08/06 03:43:21;;;;;;;5.17;2.60;;;;;;;;;;5092262;28;20237;-81
2023/08/06 03:45:47;;;;;;;3.83;2.23;;;;;;;;;;5092763;28;20505;-81
2023/08/06 03:48:13;;;;;;;5.30;2.97;;;;;;;;;;5092674;28;20770;-81
2023/08/06 03:50:38;;;;;;;5.67;2.90;;;;;;;;;;5092644;28;20251;-81
2023/08/06 03:53:04;;;;;;;4.50;2.90;;;;;;;;;;5092584;28;20207;-82
2023/08/06 03:55:30;;;;;;;3.40;2.00;;;;;;;;;;5094397;28;20418;-81
2023/08/06 03:57:56;;;;;;;5.03;3.00;;;;;;;;;;5094815;28;20183;-81
2023/08/06 04:00:22;;;;;;;7.03;2.93;;;;;;;;;;5096380;28;20173;-81
2023/08/06 04:02:49;;;;;;;4.00;2.33;;;;;;;;;;5096396;28;20696;-81
2023/08/06 04:05:15;;;;;;;4.37;2.30;;;;;;;;;;5096300;28;20201;-81
2023/08/06 04:07:41;;;;;;;3.80;3.50;;;;;;;;;;5096235;28;20842;-81
2023/08/06 04:10:07;;;;;;;4.10;2.83;;;;;;;;;;5076648;28;20461;-81
2023/08/06 04:12:36;;;;;;;4.20;3.13;;;;;;;;;;5075401;28;20228;-81
2023/08/06 04:15:02;;;;;;;5.50;2.97;;;;;;;;;;5075840;28;20457;-81
2023/08/06 04:17:28;;;;;;;3.97;2.53;;;;;;;;;;5075834;28;20962;-81
2023/08/06 04:19:55;;;;;;;2.70;2.07;;;;;;;;;;5075684;28;20421;-82
2023/08/06 04:22:21;;;;;;;4.03;2.90;;;;;;;;;;5075714;28;20307;-82
2023/08/06 04:24:47;;;;;;;3.60;2.90;;;;;;;;;;5075357;28;20446;-82
2023/08/06 04:27:14;;;;;;;4.07;3.03;;;;;;;;;;5075247;28;20811;-82
2023/08/06 04:29:39;;;;;;;6.23;2.50;;;;;;;;;;5075621;28;20421;-83
2023/08/06 04:32:07;;;;;;;3.43;2.73;;;;;;;;;;5075536;28;20459;-82
2023/08/06 04:34:33;;;;;;;3.57;2.97;;;;;;;;;;5075385;28;20218;-82
2023/08/06 04:36:59;;;;;;;8.00;2.80;;;;;;;;;;5075349;28;20440;-82
2023/08/06 04:39:25;;;;;;;3.47;2.70;;;;;;;;;;5075299;28;20417;-82
2023/08/06 04:41:51;;;;;;;4.93;2.60;;;;;;;;;;5074982;28;20424;-82
2023/08/06 04:44:17;;;;;;;4.43;2.50;;;;;;;;;;5073812;28;20239;-82
2023/08/06 04:46:42;;;;;;;6.10;3.43;;;;;;;;;;5075254;28;20620;-82
2023/08/06 04:49:08;;;;;;;4.93;3.20;;;;;;;;;;5073933;28;21014;-82
2023/08/06 04:51:34;;;;;;;3.90;2.67;;;;;;;;;;5075114;28;20174;-82
2023/08/06 04:54:00;;;;;;;5.27;3.23;;;;;;;;;;5074996;28;20473;-82
2023/08/06 04:56:26;;;;;;;4.37;2.23;;;;;;;;;;5073538;28;20422;-82
2023/08/06 04:58:52;;;;;;;6.87;3.43;;;;;;;;;;5074617;28;20910;-82
2023/08/06 05:01:19;;;;;;;4.50;3.03;;;;;;;;;;5073659;28;20420;-82
2023/08/06 05:03:45;;;;;;;6.70;3.17;;;;;;;;;;5074965;28;20827;-82
2023/08/06 05:06:10;;;;;;;4.00;2.60;;;;;;;;;;5074601;28;20407;-82
2023/08/06 05:08:36;;;;;;;6.90;4.10;;;;;;;;;;5074805;28;20206;-82
2023/08/06 05:11:02;;;;;;;4.77;2.87;;;;;;;;;;5074795;28;20614;-82
2023/08/06 05:13:28;;;;;;;5.53;3.60;;;;;;;;;;5072984;28;20981;-82
2023/08/06 05:15:54;;;;;;;6.73;3.10;;;;;;;;;;5074663;28;20423;-82
2023/08/06 05:18:20;;;;;;;5.53;3.30;;;;;;;;;;5074646;28;20405;-82
2023/08/06 05:20:46;;;;;;;8.70;3.57;;;;;;;;;;5074498;28;20424;-82
2023/08/06 05:23:12;;;;;;;4.20;2.70;;;;;;;;;;5074447;28;20907;-82
2023/08/06 05:25:38;;;;;;;7.67;3.93;;;;;;;;;;5074492;28;20507;-81
2023/08/06 05:28:05;;;;;;;7.47;3.70;;;;;;;;;;5073963;28;20191;-82
2023/08/06 05:30:31;;;;;;;5.20;3.73;;;;;;;;;;5074260;28;20906;-82
2023/08/06 05:32:56;;;;;;;5.70;2.97;;;;;;;;;;5072967;28;20459;-82
2023/08/06 05:35:23;;;;;;;5.73;4.10;;;;;;;;;;5074273;28;20503;-82
2023/08/06 05:37:49;;;;;;;4.87;3.20;;;;;;;;;;5072992;28;20418;-82
2023/08/06 05:40:15;;;;;;;4.77;3.03;;;;;;;;;;5072881;28;20819;-82
2023/08/06 05:42:41;;;;;;;6.73;4.03;;;;;;;;;;5073587;28;20478;-82
2023/08/06 05:45:07;;;;;;;4.90;3.83;;;;;;;;;;5074113;28;20471;-82
2023/08/06 05:47:33;;;;;;;7.20;4.10;;;;;;;;;;5074016;28;20411;-82
2023/08/06 05:49:59;;;;;;;7.03;4.00;;;;;;;;;;5073958;28;20507;-82
2023/08/06 05:52:25;;;;;;;4.57;3.00;;;;;;;;;;5073962;28;20761;-82
2023/08/06 05:54:51;;;;;;;4.53;3.50;;;;;;;;;;5073756;28;20482;-82
2023/08/06 05:57:17;;;;;;;7.07;3.93;;;;;;;;;;5073548;28;20410;-82
2023/08/06 05:59:43;;;;;;;7.23;3.03;;;;;;;;;;5073878;28;20180;-82
2023/08/06 06:02:09;;;;;;;8.50;3.50;;;;;;;;;;5073788;28;20423;-82
2023/08/06 06:04:35;;;;;;;5.87;3.43;;;;;;;;;;5073639;28;20415;-82
2023/08/06 06:07:01;;;;;;;4.47;3.87;;;;;;;;;;5073806;28;20408;-82
2023/08/06 06:09:27;;;;;;;7.37;4.23;;;;;;;;;;5073594;28;20421;-81
2023/08/06 06:11:53;;;;;;;7.37;3.90;;;;;;;;;;5073229;28;20414;-82
2023/08/06 06:14:19;;;;;;;6.20;3.87;;;;;;;;;;5073306;28;21010;-82
2023/08/06 06:16:45;;;;;;;4.60;3.57;;;;;;;;;;5073364;28;21083;-81
2023/08/06 06:19:12;;;;;;;5.77;3.80;;;;;;;;;;5072879;28;20437;-82
2023/08/06 06:21:38;;;;;;;6.10;3.87;;;;;;;;;;5073324;28;20404;-81
2023/08/06 06:24:05;;;;;;;6.90;2.97;;;;;;;;;;5073429;28;20408;-82
2023/08/06 06:26:31;;;;;;;5.67;4.30;;;;;;;;;;5073109;28;20509;-81
2023/08/06 06:28:57;;;;;;;9.37;3.90;;;;;;;;;;5073341;28;20889;-82
2023/08/06 06:31:23;;;;;;;6.57;4.10;;;;;;;;;;5073360;28;20731;-82
2023/08/06 06:33:49;;;;;;;5.17;4.27;;;;;;;;;;5073060;28;20570;-81
2023/08/06 06:36:15;;;;;;;7.17;4.10;;;;;;;;;;5073094;28;20220;-81
2023/08/06 06:38:41;;;;;;;5.80;4.50;;;;;;;;;;5092221;28;20640;-81
2023/08/06 06:41:07;;;;;;;6.50;3.93;;;;;;;;;;5093403;28;20772;-81
2023/08/06 06:43:33;;;;;;;9.10;3.33;;;;;;;;;;5092817;28;20228;-81
2023/08/06 06:45:59;;;;;;;5.53;3.77;;;;;;;;;;5093286;28;20400;-80
2023/08/06 06:48:29;;;;;;;7.20;3.60;;;;;;;;;;5093075;28;20963;-80
2023/08/06 06:50:55;;;;;;;5.10;3.70;;;;;;;;;;5093053;28;20409;-80
2023/08/06 06:53:26;;;;;;;7.57;4.00;;;;;;;;;;5093046;28;20462;-80
2023/08/06 06:55:52;;;;;;;6.10;4.00;;;;;;;;;;5093109;28;20406;-80
2023/08/06 06:58:18;;;;;;;5.80;3.40;;;;;;;;;;5091346;28;20470;-80
2023/08/06 07:00:44;;;;;;;4.47;3.83;;;;;;;;;;5093048;28;20229;-80
2023/08/06 07:03:10;;;;;;;6.63;4.00;;;;;;;;;;5093090;28;20172;-80
2023/08/06 07:05:36;;;;;;;5.33;4.17;;;;;;;;;;5093013;28;20909;-80
2023/08/06 07:08:02;;;;;;;11.13;3.97;;;;;;;;;;5091716;28;20952;-80
2023/08/06 07:10:28;;;;;;;7.23;4.13;;;;;;;;;;5092996;28;20243;-80
2023/08/06 07:12:54;;;;;;;8.67;4.37;;;;;;;;;;5092549;28;20482;-80
2023/08/06 07:15:20;;;;;;;6.80;4.03;;;;;;;;;;5092968;28;20184;-80
2023/08/06 07:17:46;;;;;;;8.17;4.53;;;;;;;;;;5092864;28;20767;-80
2023/08/06 07:20:12;;;;;;;5.37;3.90;;;;;;;;;;5092909;28;20172;-80
2023/08/06 07:22:38;;;;;;;8.53;4.60;;;;;;;;;;5092922;28;20412;-80
2023/08/06 07:25:04;;;;;;;9.33;6.03;;;;;;;;;;5092980;28;20534;-80
2023/08/06 07:27:29;;;;;;;5.30;4.80;;;;;;;;;;5092489;28;20542;-80
2023/08/06 07:29:55;;;;;;;7.20;4.60;;;;;;;;;;5093683;28;20831;-80
2023/08/06 07:32:21;;;;;;;6.83;4.20;;;;;;;;;;5096889;28;20174;-80
2023/08/06 07:34:47;;;;;;;6.33;4.80;;;;;;;;;;5096852;28;20252;-80
2023/08/06 07:37:13;;;;;;;6.33;4.43;;;;;;;;;;5096713;28;20406;-80
2023/08/06 07:39:41;;;;;;;7.30;4.37;;;;;;;;;;5095478;28;20198;-80
2023/08/06 07:42:07;;;;;;;6.03;4.17;;;;;;;;;;5096260;28;20176;-81
2023/08/06 07:44:33;;;;;;;5.30;4.30;;;;;;;;;;5096650;28;20504;-81
2023/08/06 07:46:59;;;;;;;5.40;4.00;;;;;;;;;;5096510;28;20406;-81
2023/08/06 07:49:25;;;;;;;7.77;4.87;;;;;;;;;;5096476;28;20176;-80
2023/08/06 07:51:52;;;;;;;7.97;5.10;;;;;;;;;;5096539;28;20647;-81
2023/08/06 07:54:18;;;;;;;6.23;4.60;;;;;;;;;;5096508;28;20215;-80
2023/08/06 07:56:44;;;;;;;5.87;4.70;;;;;;;;;;5096329;28;20513;-80
2023/08/06 07:59:10;;;;;;;6.70;4.63;;;;;;;;;;5096375;28;20239;-80
2023/08/06 08:01:36;;;;;;;5.43;4.10;;;;;;;;;;5096250;28;20201;-80
2023/08/06 08:04:02;;;;;;;8.27;4.50;;;;;;;;;;5096340;28;20414;-80
2023/08/06 08:06:28;;;;;;;6.27;4.30;;;;;;;;;;5096257;28;20174;-80
2023/08/06 08:08:54;;;;;;;4.37;3.73;;;;;;;;;;5096294;28;20403;-79
2023/08/06 08:11:20;;;;;;;8.80;4.17;;;;;;;;;;5095795;28;20171;-80
2023/08/06 08:13:46;;;;;;;6.23;3.70;;;;;;;;;;5094676;28;20257;-80
2023/08/06 08:16:12;;;;;;;7.00;4.73;;;;;;;;;;5096007;28;20772;-80
2023/08/06 08:18:38;;;;;;;5.90;4.80;;;;;;;;;;5094709;28;20168;-80
2023/08/06 08:21:04;;;;;;;6.23;4.43;;;;;;;;;;5096012;28;20176;-80
2023/08/06 08:23:31;;;;;;;6.03;4.57;;;;;;;;;;5094656;28;20207;-80
2023/08/06 08:25:57;;;;;;;7.47;5.17;;;;;;;;;;5095917;28;20179;-79
2023/08/06 08:28:23;;;;;;;7.67;4.43;;;;;;;;;;5094165;28;20914;-79
2023/08/06 08:30:49;;;;;;;6.43;4.67;;;;;;;;;;5092248;28;20174;-80
2023/08/06 08:33:14;;;;;;;7.93;4.80;;;;;;;;;;5084300;28;20205;-80
2023/08/06 08:35:40;;;;;;;6.60;4.13;;;;;;;;;;5086735;28;20186;-80
2023/08/06 08:38:09;;;;;;;4.93;4.43;;;;;;;;;;5086405;28;20192;-80
2023/08/06 08:40:38;;;;;;;9.40;5.20;;;;;;;;;;5084428;28;20222;-80
2023/08/06 08:43:05;;;;;;;5.47;4.53;;;;;;;;;;5084886;28;20450;-80
2023/08/06 08:45:34;;;;;;;8.60;6.23;;;;;;;;;;5083591;28;20472;-80
2023/08/06 08:48:00;;;;;;;11.03;5.53;;;;;;;;;;5084401;28;20461;-79
2023/08/06 08:50:26;;;;;;;9.53;5.00;;;;;;;;;;5084213;28;20418;-79
2023/08/06 08:52:52;;;;;;;7.97;4.70;;;;;;;;;;5083516;28;20754;-79
2023/08/06 08:55:18;;;;;;;6.90;4.77;;;;;;;;;;5084297;28;20176;-80
2023/08/06 08:57:47;;;;;;;5.33;4.80;;;;;;;;;;5085030;28;20502;-79
2023/08/06 09:00:14;;;;;;;6.03;4.57;;;;;;;;;;5083726;28;20407;-80
2023/08/06 09:02:40;;;;;;;6.10;4.50;;;;;;;;;;5084056;28;20418;-81
2023/08/06 09:05:10;;;;;;;6.53;4.67;;;;;;;;;;5088048;28;20769;-79
2023/08/06 09:07:39;;;;;;;8.37;6.17;;;;;;;;;;5094606;28;20768;-80
2023/08/06 09:10:07;;;;;;;7.70;5.27;;;;;;;;;;5089699;28;20434;-78
2023/08/06 09:12:33;;;;;;;8.13;5.63;;;;;;;;;;5073921;28;20777;-80
2023/08/06 09:14:59;;;;;;;6.33;4.53;;;;;;;;;;5074458;28;20477;-81
2023/08/06 09:17:25;;;;;;;6.33;5.50;;;;;;;;;;5092505;28;20171;-79
2023/08/06 09:19:51;;;;;;;7.07;4.20;;;;;;;;;;5094365;28;20422;-81
2023/08/06 09:22:17;;;;;;;6.70;4.57;;;;;;;;;;5093039;28;20422;-80
2023/08/06 09:24:43;;;;;;;6.63;5.60;;;;;;;;;;5091625;28;20778;-78
2023/08/06 09:27:13;;;;;;;5.83;4.60;;;;;;;;;;5090943;28;20177;-78
2023/08/06 09:29:46;;;;;;;5.40;4.13;;;;;;;;;;5094710;28;20406;-78
2023/08/06 09:32:12;;;;;;;9.50;4.90;;;;;;;;;;5094681;28;20406;-78
2023/08/06 09:34:42;;;;;;;5.40;4.50;;;;;;;;;;5094511;28;20473;-78
2023/08/06 09:37:11;;;;;;;5.77;5.07;;;;;;;;;;5094455;28;20412;-78
2023/08/06 09:39:39;;;;;;;7.53;4.63;;;;;;;;;;5094377;28;20406;-79
2023/08/06 09:42:05;;;;;;;5.83;5.30;;;;;;;;;;5093926;28;20507;-79
2023/08/06 09:44:32;;;;;;;6.03;5.40;;;;;;;;;;5094332;28;20424;-79
2023/08/06 09:46:58;;;;;;;9.00;5.57;;;;;;;;;;5094369;28;20767;-79
2023/08/06 09:49:45;;;;;;;7.70;6.20;;;;;;;;;;5094218;28;20421;-79
2023/08/06 09:52:11;;;;;;;8.07;5.53;;;;;;;;;;5093679;28;20468;-80
2023/08/06 09:54:38;;;;;;;6.00;5.10;;;;;;;;;;5093948;28;20524;-79
2023/08/06 09:57:04;;;;;;;8.90;5.90;;;;;;;;;;5093818;28;20406;-79
2023/08/06 09:59:31;;;;;;;14.37;7.97;;;;;;;;;;5094157;28;20410;-79
2023/08/06 10:01:57;;;;;;;7.90;6.07;;;;;;;;;;5093957;28;20406;-80
2023/08/06 10:04:23;;;;;;;8.57;6.93;;;;;;;;;;5094056;28;20429;-80
2023/08/06 10:06:50;;;;;;;7.73;6.40;;;;;;;;;;5093971;28;20441;-78
2023/08/06 10:09:16;;;;;;;12.23;7.33;;;;;;;;;;5092647;28;20453;-80
2023/08/06 10:11:48;;;;;;;8.30;6.93;;;;;;;;;;5093526;28;20746;-79
2023/08/06 10:14:17;;;;;;;7.63;6.27;;;;;;;;;;5093716;28;20508;-79
2023/08/06 10:16:43;;;;;;;6.57;5.77;;;;;;;;;;5093716;28;20455;-80
2023/08/06 10:19:13;;;;;;;9.93;6.43;;;;;;;;;;5093770;28;20906;-80
2023/08/06 10:21:39;;;;;;;9.83;5.60;;;;;;;;;;5093688;28;20403;-79
2023/08/06 10:24:10;;;;;;;7.50;6.80;;;;;;;;;;5093801;28;20413;-80
2023/08/06 10:26:36;;;;;;;7.23;6.20;;;;;;;;;;5093610;28;20905;-80
2023/08/06 10:29:02;;;;;;;7.80;5.50;;;;;;;;;;5093638;28;20418;-79
2023/08/06 10:31:46;;;;;;;8.00;4.00;;;;;;;;;;5093505;28;20406;-79
2023/08/06 10:34:19;;;;;;;13.57;5.70;;;;;;;;;;5093468;28;20518;-80
2023/08/06 10:36:45;;;;;;;6.43;5.10;;;;;;;;;;5093810;28;20452;-80
2023/08/06 10:39:14;;;;;;;7.63;4.80;;;;;;;;;;5093355;28;20422;-79
2023/08/06 10:41:42;;;;;;;7.00;4.57;;;;;;;;;;5093215;28;20485;-79
2023/08/06 10:44:09;;;;;;;6.50;5.00;;;;;;;;;;5091932;28;20902;-80
2023/08/06 10:46:35;;;;;;;6.13;5.43;;;;;;;;;;5093302;28;20876;-80
2023/08/06 10:49:01;;;;;;;4.90;4.10;;;;;;;;;;5093394;28;20406;-79
2023/08/06 10:51:27;;;;;;;5.43;4.93;;;;;;;;;;5093295;28;20437;-80
2023/08/06 10:53:53;;;;;;;5.03;3.67;;;;;;;;;;5093030;28;20465;-80
2023/08/06 10:56:21;;;;;;;4.60;4.07;;;;;;;;;;5092930;28;20403;-80
2023/08/06 10:58:48;;;;;;;5.00;4.43;;;;;;;;;;5093162;28;20417;-80
2023/08/06 11:01:15;;;;;;;6.17;5.53;;;;;;;;;;5093190;28;20399;-80
2023/08/06 11:03:41;;;;;;;4.50;3.60;;;;;;;;;;5092881;28;20409;-81
2023/08/06 11:06:10;;;;;;;5.00;3.87;;;;;;;;;;5093102;28;20406;-81
2023/08/06 11:08:36;;;;;;;5.93;4.40;;;;;;;;;;5093151;28;20832;-79
2023/08/06 11:11:13;;;;;;;5.00;3.67;;;;;;;;;;5092794;28;20758;-81
2023/08/06 11:13:46;;;;;;;5.37;4.33;;;;;;;;;;5093020;28;20482;-80
2023/08/06 11:16:13;;;;;;;4.83;4.03;;;;;;;;;;5092972;28;20559;-81
2023/08/06 11:18:40;;;;;;;4.23;3.60;;;;;;;;;;5093032;28;20425;-80
2023/08/06 11:21:06;;;;;;;4.17;3.63;;;;;;;;;;5093035;28;20928;-80
2023/08/06 11:23:31;;;;;;;4.13;2.67;;;;;;;;;;5092937;28;20416;-79
2023/08/06 11:25:58;;;;;;;4.43;3.70;;;;;;;;;;5092437;28;20244;-79
2023/08/06 11:28:24;;;;;;;4.43;4.00;;;;;;;;;;5092894;28;20168;-79
2023/08/06 11:30:50;;;;;;;4.17;3.60;;;;;;;;;;5092941;28;20527;-80
2023/08/06 11:33:25;;;;;;;4.30;3.50;;;;;;;;;;5092837;28;20459;-78
2023/08/06 11:35:51;;;;;;;4.53;3.30;;;;;;;;;;5091490;28;20441;-81
2023/08/06 11:38:17;;;;;;;5.60;3.90;;;;;;;;;;5091470;28;20954;-81
2023/08/06 11:40:45;;;;;;;4.27;3.87;;;;;;;;;;5092456;28;20451;-82
2023/08/06 11:43:10;;;;;;;3.50;3.20;;;;;;;;;;5092584;28;20465;-79
2023/08/06 11:45:37;;;;;;;4.00;3.30;;;;;;;;;;5092707;28;20545;-80
2023/08/06 11:48:03;;;;;;;4.10;3.63;;;;;;;;;;5092648;28;20414;-80
2023/08/06 11:50:30;;;;;;;4.20;3.73;;;;;;;;;;5091312;28;20429;-81
2023/08/06 11:53:00;;;;;;;4.37;3.93;;;;;;;;;;5091300;28;20410;-80
2023/08/06 11:55:28;;;;;;;4.50;4.03;;;;;;;;;;5092688;28;20783;-80
2023/08/06 11:57:53;;;;;;;5.50;4.40;;;;;;;;;;5093159;28;20415;-80
2023/08/06 12:00:21;;;;;;;5.27;3.97;;;;;;;;;;5092519;28;20410;-79
2023/08/06 12:02:49;;;;;;;4.37;3.63;;;;;;;;;;5092524;28;20479;-79
2023/08/06 12:05:15;;;;;;;4.43;3.53;;;;;;;;;;5092520;28;20908;-79
2023/08/06 12:07:41;;;;;;;5.13;3.77;;;;;;;;;;5092654;28;20459;-79
2023/08/06 12:10:08;;;;;;;5.10;3.13;;;;;;;;;;5092543;28;20444;-79
2023/08/06 12:12:34;;;;;;;6.43;5.23;;;;;;;;;;5092097;28;20486;-79
2023/08/06 12:15:00;;;;;;;5.53;4.30;;;;;;;;;;5092311;28;20468;-79
2023/08/06 12:17:26;;;;;;;5.40;3.87;;;;;;;;;;5095497;28;20405;-79
2023/08/06 12:19:52;;;;;;;7.97;4.60;;;;;;;;;;5096018;28;20559;-79
2023/08/06 12:22:18;;;;;;;4.43;3.90;;;;;;;;;;5095989;28;20406;-79
2023/08/06 12:24:45;;;;;;;5.93;3.93;;;;;;;;;;5095905;28;20438;-81
2023/08/06 12:27:11;;;;;;;6.23;4.30;;;;;;;;;;5095610;28;20406;-82
2023/08/06 12:29:38;;;;;;;5.00;4.13;;;;;;;;;;5095765;28;20419;-79
2023/08/06 12:32:04;;;;;;;4.57;4.07;;;;;;;;;;5095772;28;20419;-80
2023/08/06 12:34:30;;;;;;;4.47;4.07;;;;;;;;;;5095663;28;20479;-80
2023/08/06 12:36:59;;;;;;;6.20;4.77;;;;;;;;;;5094452;28;20414;-80
2023/08/06 12:39:24;;;;;;;4.17;3.77;;;;;;;;;;5095670;28;20197;-80
2023/08/06 12:41:50;;;;;;;4.60;3.60;;;;;;;;;;5095273;28;20413;-80
2023/08/06 12:44:16;;;;;;;6.37;4.00;;;;;;;;;;5095441;28;20232;-80
2023/08/06 12:46:42;;;;;;;3.53;3.00;;;;;;;;;;5095601;28;20409;-79
2023/08/06 12:49:08;;;;;;;4.07;3.47;;;;;;;;;;5095530;28;20643;-79
2023/08/06 12:51:34;;;;;;;4.00;3.67;;;;;;;;;;5095455;28;20179;-80
2023/08/06 12:54:00;;;;;;;4.70;3.37;;;;;;;;;;5100570;28;20686;-79
2023/08/06 12:56:26;;;;;;;3.90;3.17;;;;;;;;;;5095030;28;20207;-78
2023/08/06 12:58:52;;;;;;;5.23;2.80;;;;;;;;;;5095328;28;20495;-79
2023/08/06 13:01:18;;;;;;;3.23;2.90;;;;;;;;;;5095260;28;20176;-81
2023/08/06 13:03:44;;;;;;;3.77;3.20;;;;;;;;;;5095308;28;20181;-79
2023/08/06 13:06:09;;;;;;;3.30;2.50;;;;;;;;;;5093958;28;20180;-80
2023/08/06 13:08:36;;;;;;;5.23;2.97;;;;;;;;;;5095145;28;20174;-80
2023/08/06 13:11:02;;;;;;;3.33;2.53;;;;;;;;;;5094736;28;20172;-80
2023/08/06 13:13:28;;;;;;;4.73;4.07;;;;;;;;;;5094932;28;20460;-80
2023/08/06 13:15:53;;;;;;;3.17;2.87;;;;;;;;;;5094948;28;21000;-79
2023/08/06 13:18:19;;;;;;;4.40;3.40;;;;;;;;;;5094948;28;20177;-80
2023/08/06 13:20:46;;;;;;;3.90;3.23;;;;;;;;;;5094849;28;20231;-81
2023/08/06 13:23:15;;;;;;;4.10;3.20;;;;;;;;;;5094804;28;20425;-80
2023/08/06 13:25:41;;;;;;;3.57;3.23;;;;;;;;;;5094306;28;20490;-80
2023/08/06 13:28:07;;;;;;;3.13;2.40;;;;;;;;;;5094676;28;20494;-80
2023/08/06 13:30:35;;;;;;;3.03;2.73;;;;;;;;;;5094739;28;20544;-80
2023/08/06 13:33:01;;;;;;;4.30;3.33;;;;;;;;;;5094571;28;20643;-81
2023/08/06 13:35:27;;;;;;;5.50;2.93;;;;;;;;;;5094586;28;20418;-80
2023/08/06 13:37:54;;;;;;;5.03;3.20;;;;;;;;;;5094526;28;20798;-80
2023/08/06 13:40:20;;;;;;;3.80;3.40;;;;;;;;;;5094130;28;20414;-80
2023/08/06 13:42:46;;;;;;;4.90;3.77;;;;;;;;;;5094273;28;20496;-79
2023/08/06 13:45:11;;;;;;;4.30;3.60;;;;;;;;;;5094510;28;20726;-78
2023/08/06 13:47:37;;;;;;;4.37;3.20;;;;;;;;;;5094449;28;20171;-80
2023/08/06 13:50:03;;;;;;;3.93;3.53;;;;;;;;;;5094416;28;20981;-81
2023/08/06 13:52:29;;;;;;;5.47;4.10;;;;;;;;;;5094325;28;20207;-80
2023/08/06 13:54:57;;;;;;;4.50;3.10;;;;;;;;;;5094141;28;20557;-78
2023/08/06 13:57:23;;;;;;;5.00;4.37;;;;;;;;;;5093806;28;20175;-79
2023/08/06 13:59:49;;;;;;;4.67;4.07;;;;;;;;;;5094132;28;20505;-79
2023/08/06 14:02:15;;;;;;;4.73;3.60;;;;;;;;;;5094101;28;20211;-79
2023/08/06 14:04:41;;;;;;;4.50;3.00;;;;;;;;;;5094048;28;20806;-81
2023/08/06 14:07:06;;;;;;;5.30;4.30;;;;;;;;;;5094053;28;20633;-78
2023/08/06 14:09:34;;;;;;;5.27;3.60;;;;;;;;;;5093930;28;20488;-80
2023/08/06 14:12:00;;;;;;;4.00;3.60;;;;;;;;;;5093630;28;20171;-79
2023/08/06 14:14:26;;;;;;;5.33;3.60;;;;;;;;;;5093622;28;20530;-82
2023/08/06 14:16:53;;;;;;;4.07;3.60;;;;;;;;;;5093901;28;20163;-80
2023/08/06 14:19:19;;;;;;;4.80;3.90;;;;;;;;;;5092481;28;20433;-78
2023/08/06 14:21:45;;;;;;;6.10;3.30;;;;;;;;;;5093669;28;20406;-80
2023/08/06 14:24:11;;;;;;;5.97;3.30;;;;;;;;;;5093736;28;20517;-80
2023/08/06 14:26:37;;;;;;;6.57;3.30;;;;;;;;;;5093585;28;20165;-81
2023/08/06 14:29:03;;;;;;;5.67;3.67;;;;;;;;;;5093617;28;20884;-79
2023/08/06 14:31:29;;;;;;;5.87;2.17;;;;;;;;;;5093582;28;20297;-82
2023/08/06 14:33:55;;;;;;;3.10;2.70;;;;;;;;;;5093481;28;20482;-79
2023/08/06 14:36:21;;;;;;;4.73;3.20;;;;;;;;;;5093456;28;20410;-78
2023/08/06 14:38:47;;;;;;;4.57;2.70;;;;;;;;;;5092975;28;20409;-81